Time;durP1;ratioP1;P1;durP2;ratioP2;P2;SDS_P1;SDS_P2;PMS_P1;PMS_P2;Temp;Humidity;BMP_temperature;BMP_pressure;BME280_temperature;BME280_humidity;BME280_pressure;Samples;Min_cycle;Max_cycle;Signal;HPM_P1;HPM_P2
2023/12/26 00:01:30;;;;;;;;;;;;;;;;;;5096942;28;19915;-69
2023/12/26 00:03:56;;;;;;;;;;;;;;;;;;5078958;28;20425;-69
2023/12/26 00:06:22;;;;;;;;;;;;;;;;;;5097030;28;20292;-69
2023/12/26 00:08:48;;;;;;;;;;;;;;;;;;5096269;28;19974;-68
2023/12/26 00:11:15;;;;;;;;;;;;;;;;;;5096963;28;19914;-69
2023/12/26 00:13:40;;;;;;;;;;;;;;;;;;5096865;28;20003;-69
2023/12/26 00:16:06;;;;;;;;;;;;;;;;;;5096422;28;19948;-68
2023/12/26 00:18:32;;;;;;;;;;;;;;;;;;5096795;28;19920;-69
2023/12/26 00:20:58;;;;;;;;;;;;;;;;;;5096823;28;19908;-68
2023/12/26 00:23:24;;;;;;;;;;;;;;;;;;5096476;28;19916;-68
2023/12/26 00:25:50;;;;;;;;;;;;;;;;;;5096739;28;19934;-69
2023/12/26 00:28:19;;;;;;;;;;;;;;;;;;5096677;28;20311;-68
2023/12/26 00:30:45;;;;;;;;;;;;;;;;;;5096293;28;19932;-69
2023/12/26 00:33:11;;;;;;;;;;;;;;;;;;5096562;28;19919;-69
2023/12/26 00:35:37;;;;;;;;;;;;;;;;;;5096111;28;20065;-69
2023/12/26 00:38:03;;;;;;;;;;;;;;;;;;5096470;28;19908;-69
2023/12/26 00:40:29;;;;;;;;;;;;;;;;;;5095921;28;19947;-68
2023/12/26 00:42:55;;;;;;;;;;;;;;;;;;5077885;28;19915;-69
2023/12/26 00:45:22;;;;;;;;;;;;;;;;;;5096285;28;19909;-68
2023/12/26 00:47:48;;;;;;;;;;;;;;;;;;5096464;28;19912;-69
2023/12/26 00:50:16;;;;;;;;;;;;;;;;;;5095801;28;19916;-69
2023/12/26 00:52:42;;;;;;;;;;;;;;;;;;5096256;28;20291;-68
2023/12/26 00:55:08;;;;;;;;;;;;;;;;;;5096095;28;19912;-68
2023/12/26 00:57:34;;;;;;;;;;;;;;;;;;5095615;28;19908;-68
2023/12/26 01:00:00;;;;;;;;;;;;;;;;;;5096023;28;19908;-69
2023/12/26 01:02:26;;;;;;;;;;;;;;;;;;5077871;28;20300;-69
2023/12/26 01:04:52;;;;;;;;;;;;;;;;;;5095603;28;19908;-68
2023/12/26 01:07:18;;;;;;;;;;;;;;;;;;5095930;28;19908;-68
2023/12/26 01:09:44;;;;;;;;;;;;;;;;;;5095617;28;19927;-69
2023/12/26 01:12:10;;;;;;;;;;;;;;;;;;5095637;28;19908;-69
2023/12/26 01:14:36;;;;;;;;;;;;;;;;;;5095694;28;19908;-68
2023/12/26 01:17:02;;;;;;;;;;;;;;;;;;5077743;28;19908;-68
2023/12/26 01:19:28;;;;;;;;;;;;;;;;;;5077082;28;19909;-69
2023/12/26 01:21:54;;;;;;;;;;;;;;;;;;5095531;28;19987;-69
2023/12/26 01:24:20;;;;;;;;;;;;;;;;;;5095526;28;19909;-68
2023/12/26 01:26:46;;;;;;;;;;;;;;;;;;5095135;28;19908;-69
2023/12/26 01:29:12;;;;;;;;;;;;;;;;;;5095302;28;19916;-69
2023/12/26 01:31:38;;;;;;;;;;;;;;;;;;5095391;28;19915;-69
2023/12/26 01:34:04;;;;;;;;;;;;;;;;;;5094967;28;19912;-69
2023/12/26 01:36:30;;;;;;;;;;;;;;;;;;5095554;28;19915;-69
2023/12/26 01:38:56;;;;;;;;;;;;;;;;;;5094877;28;19908;-69
2023/12/26 01:41:22;;;;;;;;;;;;;;;;;;5095681;28;19953;-68
2023/12/26 01:43:48;;;;;;;;;;;;;;;;;;5076942;28;20376;-69
2023/12/26 01:46:14;;;;;;;;;;;;;;;;;;5094767;28;19908;-69
2023/12/26 01:48:40;;;;;;;;;;;;;;;;;;5076831;28;19920;-69
2023/12/26 01:51:06;;;;;;;;;;;;;;;;;;5095077;28;19934;-69
2023/12/26 01:53:33;;;;;;;;;;;;;;;;;;5075626;28;19916;-69
2023/12/26 01:55:59;;;;;;;;;;;;;;;;;;5094910;28;19999;-69
2023/12/26 01:58:25;;;;;;;;;;;;;;;;;;5094904;28;19955;-68
2023/12/26 02:00:51;;;;;;;;;;;;;;;;;;5094559;28;20418;-69
2023/12/26 02:03:17;;;;;;;;;;;;;;;;;;5076698;28;20011;-69
2023/12/26 02:05:43;;;;;;;;;;;;;;;;;;5094766;28;19958;-68
2023/12/26 02:08:09;;;;;;;;;;;;;;;;;;5094167;28;19913;-68
2023/12/26 02:10:36;;;;;;;;;;;;;;;;;;5094670;28;19909;-69
2023/12/26 02:13:02;;;;;;;;;;;;;;;;;;5094786;28;19912;-68
2023/12/26 02:15:28;;;;;;;;;;;;;;;;;;5094223;28;19908;-68
2023/12/26 02:17:54;;;;;;;;;;;;;;;;;;5076448;28;19909;-68
2023/12/26 02:20:19;;;;;;;;;;;;;;;;;;5094582;28;19908;-69
2023/12/26 02:22:46;;;;;;;;;;;;;;;;;;5094227;28;19912;-69
2023/12/26 02:25:12;;;;;;;;;;;;;;;;;;5076651;28;19958;-69
2023/12/26 02:27:38;;;;;;;;;;;;;;;;;;5094390;28;19915;-68
2023/12/26 02:30:05;;;;;;;;;;;;;;;;;;5093894;28;20275;-69
2023/12/26 02:32:31;;;;;;;;;;;;;;;;;;5076019;28;20340;-69
2023/12/26 02:35:00;;;;;;;;;;;;;;;;;;5094340;28;19940;-69
2023/12/26 02:37:26;;;;;;;;;;;;;;;;;;5075703;28;20395;-69
2023/12/26 02:39:52;;;;;;;;;;;;;;;;;;5094189;28;19935;-69
2023/12/26 02:42:18;;;;;;;;;;;;;;;;;;5094110;28;20370;-69
2023/12/26 02:44:44;;;;;;;;;;;;;;;;;;5094046;28;19916;-69
2023/12/26 02:47:10;;;;;;;;;;;;;;;;;;5094403;28;19915;-69
2023/12/26 02:49:36;;;;;;;;;;;;;;;;;;5093618;28;19923;-69
2023/12/26 02:52:02;;;;;;;;;;;;;;;;;;5093948;28;19919;-68
2023/12/26 02:54:28;;;;;;;;;;;;;;;;;;5075763;28;20284;-69
2023/12/26 02:56:54;;;;;;;;;;;;;;;;;;5093595;28;19908;-68
2023/12/26 02:59:20;;;;;;;;;;;;;;;;;;5093885;28;19912;-69
2023/12/26 03:01:45;;;;;;;;;;;;;;;;;;5075680;28;20368;-69
2023/12/26 03:04:12;;;;;;;;;;;;;;;;;;5093325;28;19912;-69
2023/12/26 03:06:38;;;;;;;;;;;;;;;;;;5075630;28;20321;-69
2023/12/26 03:09:04;;;;;;;;;;;;;;;;;;5093542;28;20295;-68
2023/12/26 03:11:30;;;;;;;;;;;;;;;;;;5093338;28;19908;-69
2023/12/26 03:13:56;;;;;;;;;;;;;;;;;;5075700;28;20328;-69
2023/12/26 03:16:21;;;;;;;;;;;;;;;;;;5075653;28;19920;-68
2023/12/26 03:18:47;;;;;;;;;;;;;;;;;;5093465;28;20280;-69
2023/12/26 03:21:13;;;;;;;;;;;;;;;;;;5093659;28;19908;-68
2023/12/26 03:23:39;;;;;;;;;;;;;;;;;;5094169;28;20371;-68
2023/12/26 03:26:05;;;;;;;;;;;;;;;;;;5093275;28;20304;-68
2023/12/26 03:28:31;;;;;;;;;;;;;;;;;;5075461;28;19938;-69
2023/12/26 03:30:57;;;;;;;;;;;;;;;;;;5093570;28;19912;-68
2023/12/26 03:33:23;;;;;;;;;;;;;;;;;;5093201;28;19908;-68
2023/12/26 03:35:49;;;;;;;;;;;;;;;;;;5093550;28;19912;-69
2023/12/26 03:38:15;;;;;;;;;;;;;;;;;;5093603;28;20424;-68
2023/12/26 03:40:41;;;;;;;;;;;;;;;;;;5093116;28;20018;-67
2023/12/26 03:43:07;;;;;;;;;;;;;;;;;;5093566;28;19939;-67
2023/12/26 03:45:33;;;;;;;;;;;;;;;;;;5093460;28;19908;-69
2023/12/26 03:47:59;;;;;;;;;;;;;;;;;;5093482;28;19990;-69
2023/12/26 03:50:25;;;;;;;;;;;;;;;;;;5093458;28;20376;-68
2023/12/26 03:52:51;;;;;;;;;;;;;;;;;;5093026;28;19963;-68
2023/12/26 03:55:17;;;;;;;;;;;;;;;;;;5093484;28;19915;-68
2023/12/26 03:57:43;;;;;;;;;;;;;;;;;;5093368;28;19946;-68
2023/12/26 04:00:09;;;;;;;;;;;;;;;;;;5092915;28;19940;-68
2023/12/26 04:02:35;;;;;;;;;;;;;;;;;;5093273;28;20327;-69
2023/12/26 04:05:02;;;;;;;;;;;;;;;;;;5093381;28;19912;-68
2023/12/26 04:07:28;;;;;;;;;;;;;;;;;;5093003;28;19961;-68
2023/12/26 04:09:54;;;;;;;;;;;;;;;;;;5093351;28;19989;-68
2023/12/26 04:12:20;;;;;;;;;;;;;;;;;;5093228;28;19944;-68
2023/12/26 04:14:46;;;;;;;;;;;;;;;;;;5092919;28;19915;-68
2023/12/26 04:17:12;;;;;;;;;;;;;;;;;;5095919;28;19916;-68
2023/12/26 04:19:38;;;;;;;;;;;;;;;;;;5096766;28;19908;-68
2023/12/26 04:22:04;;;;;;;;;;;;;;;;;;5096402;28;19930;-68
2023/12/26 04:24:30;;;;;;;;;;;;;;;;;;5078604;28;19912;-68
2023/12/26 04:26:56;;;;;;;;;;;;;;;;;;5096647;28;19939;-68
2023/12/26 04:29:22;;;;;;;;;;;;;;;;;;5096401;28;19959;-68
2023/12/26 04:31:48;;;;;;;;;;;;;;;;;;5096578;28;20390;-69
2023/12/26 04:34:14;;;;;;;;;;;;;;;;;;5096680;28;19999;-68
2023/12/26 04:36:41;;;;;;;;;;;;;;;;;;5077998;28;19908;-68
2023/12/26 04:39:07;;;;;;;;;;;;;;;;;;5096693;28;20360;-70
2023/12/26 04:41:32;;;;;;;;;;;;;;;;;;5096886;28;20376;-68
2023/12/26 04:43:58;;;;;;;;;;;;;;;;;;5077841;28;19915;-68
2023/12/26 04:46:25;;;;;;;;;;;;;;;;;;5096324;28;19915;-69
2023/12/26 04:48:51;;;;;;;;;;;;;;;;;;5077755;28;19917;-69
2023/12/26 04:51:17;;;;;;;;;;;;;;;;;;5096189;28;19908;-69
2023/12/26 04:53:44;;;;;;;;;;;;;;;;;;5096652;28;19908;-69
2023/12/26 04:56:10;;;;;;;;;;;;;;;;;;5095767;28;20425;-69
2023/12/26 04:58:36;;;;;;;;;;;;;;;;;;5095999;28;19912;-69
2023/12/26 05:01:02;;;;;;;;;;;;;;;;;;5096257;28;19908;-69
2023/12/26 05:03:28;;;;;;;;;;;;;;;;;;5095915;28;20261;-69
2023/12/26 05:05:54;;;;;;;;;;;;;;;;;;5095891;28;19954;-69
2023/12/26 05:08:20;;;;;;;;;;;;;;;;;;5095716;28;19965;-69
2023/12/26 05:10:46;;;;;;;;;;;;;;;;;;5095729;28;20003;-70
2023/12/26 05:13:12;;;;;;;;;;;;;;;;;;5095745;28;19919;-70
2023/12/26 05:15:37;;;;;;;;;;;;;;;;;;5077538;28;20386;-70
2023/12/26 05:18:04;;;;;;;;;;;;;;;;;;5095352;28;20254;-69
2023/12/26 05:20:30;;;;;;;;;;;;;;;;;;5095795;28;20280;-70
2023/12/26 05:22:56;;;;;;;;;;;;;;;;;;5095591;28;19908;-69
2023/12/26 05:25:23;;;;;;;;;;;;;;;;;;5095161;28;20357;-69
2023/12/26 05:27:49;;;;;;;;;;;;;;;;;;5095573;28;19916;-69
2023/12/26 05:30:15;;;;;;;;;;;;;;;;;;5095457;28;19916;-69
2023/12/26 05:32:41;;;;;;;;;;;;;;;;;;5095195;28;20002;-69
2023/12/26 05:35:07;;;;;;;;;;;;;;;;;;5095397;28;19962;-69
2023/12/26 05:37:33;;;;;;;;;;;;;;;;;;5095378;28;20317;-69
2023/12/26 05:39:59;;;;;;;;;;;;;;;;;;5094878;28;20383;-69
2023/12/26 05:42:26;;;;;;;;;;;;;;;;;;5095188;28;19967;-69
2023/12/26 05:44:52;;;;;;;;;;;;;;;;;;5095541;28;19957;-69
2023/12/26 05:47:20;;;;;;;;;;;;;;;;;;5094719;28;19908;-69
2023/12/26 05:49:46;;;;;;;;;;;;;;;;;;5095116;28;19939;-69
2023/12/26 05:52:12;;;;;;;;;;;;;;;;;;5094994;28;20348;-69
2023/12/26 05:54:38;;;;;;;;;;;;;;;;;;5095024;28;19908;-69
2023/12/26 05:57:04;;;;;;;;;;;;;;;;;;5076932;28;20264;-69
2023/12/26 05:59:30;;;;;;;;;;;;;;;;;;5094623;28;19915;-69
2023/12/26 06:01:56;;;;;;;;;;;;;;;;;;5095279;28;20417;-69
2023/12/26 06:04:22;;;;;;;;;;;;;;;;;;5094939;28;19934;-69
2023/12/26 06:06:48;;;;;;;;;;;;;;;;;;5094477;28;19912;-69
2023/12/26 06:09:14;;;;;;;;;;;;;;;;;;5094606;28;19973;-69
2023/12/26 06:11:40;;;;;;;;;;;;;;;;;;5094741;28;19915;-69
2023/12/26 06:14:07;;;;;;;;;;;;;;;;;;5094340;28;19908;-69
2023/12/26 06:16:33;;;;;;;;;;;;;;;;;;5095164;28;19931;-69
2023/12/26 06:18:59;;;;;;;;;;;;;;;;;;5094541;28;19908;-69
2023/12/26 06:21:25;;;;;;;;;;;;;;;;;;5093921;28;20318;-68
2023/12/26 06:23:51;;;;;;;;;;;;;;;;;;5092785;28;19974;-67
2023/12/26 06:26:17;;;;;;;;;;;;;;;;;;5094266;28;19955;-67
2023/12/26 06:28:43;;;;;;;;;;;;;;;;;;5092942;28;19975;-67
2023/12/26 06:31:09;;;;;;;;;;;;;;;;;;5093648;28;19914;-67
2023/12/26 06:33:35;;;;;;;;;;;;;;;;;;5094079;28;19934;-68
2023/12/26 06:36:01;;;;;;;;;;;;;;;;;;5075297;28;19912;-68
2023/12/26 06:38:27;;;;;;;;;;;;;;;;;;5094699;28;19912;-67
2023/12/26 06:40:53;;;;;;;;;;;;;;;;;;5093503;28;19912;-67
2023/12/26 06:43:19;;;;;;;;;;;;;;;;;;5073207;28;19912;-67
2023/12/26 06:45:45;;;;;;;;;;;;;;;;;;5090223;28;19909;-67
2023/12/26 06:48:11;;;;;;;;;;;;;;;;;;5090415;28;19955;-68
2023/12/26 06:50:37;;;;;;;;;;;;;;;;;;5091894;28;19912;-67
2023/12/26 06:53:03;;;;;;;;;;;;;;;;;;5091864;28;19998;-67
2023/12/26 06:55:29;;;;;;;;;;;;;;;;;;5091807;28;20412;-67
2023/12/26 06:57:56;;;;;;;;;;;;;;;;;;5092077;28;20321;-67
2023/12/26 07:00:22;;;;;;;;;;;;;;;;;;5093554;28;20356;-67
2023/12/26 07:02:48;;;;;;;;;;;;;;;;;;5092982;28;19909;-68
2023/12/26 07:05:14;;;;;;;;;;;;;;;;;;5086792;28;19912;-69
2023/12/26 07:07:40;;;;;;;;;;;;;;;;;;5069765;28;20341;-68
2023/12/26 07:10:06;;;;;;;;;;;;;;;;;;5092957;28;20372;-66
2023/12/26 07:12:33;;;;;;;;;;;;;;;;;;5089240;28;19923;-67
2023/12/26 07:15:00;;;;;;;;;;;;;;;;;;5079854;28;19913;-67
2023/12/26 07:17:26;;;;;;;;;;;;;;;;;;5064222;28;19908;-68
2023/12/26 07:19:52;;;;;;;;;;;;;;;;;;5092265;28;20368;-67
2023/12/26 07:22:19;;;;;;;;;;;;;;;;;;5082147;28;19958;-67
2023/12/26 07:24:47;;;;;;;;;;;;;;;;;;5082152;28;19912;-67
2023/12/26 07:27:13;;;;;;;;;;;;;;;;;;5088327;28;19989;-69
2023/12/26 07:29:39;;;;;;;;;;;;;;;;;;5086658;28;19927;-70
2023/12/26 07:32:05;;;;;;;;;;;;;;;;;;5089447;28;19999;-70
2023/12/26 07:34:31;;;;;;;;;;;;;;;;;;5074908;28;20014;-72
2023/12/26 07:36:57;;;;;;;;;;;;;;;;;;5086941;28;19908;-72
2023/12/26 07:39:23;;;;;;;;;;;;;;;;;;5092235;28;19912;-68
2023/12/26 07:41:49;;;;;;;;;;;;;;;;;;5092664;28;20318;-68
2023/12/26 07:44:15;;;;;;;;;;;;;;;;;;5091706;28;19960;-67
2023/12/26 07:46:42;;;;;;;;;;;;;;;;;;5092138;28;20367;-67
2023/12/26 07:49:08;;;;;;;;;;;;;;;;;;5092072;28;19928;-67
2023/12/26 07:51:34;;;;;;;;;;;;;;;;;;5094734;28;20268;-67
2023/12/26 07:54:00;;;;;;;;;;;;;;;;;;5095997;28;19908;-67
2023/12/26 07:56:26;;;;;;;;;;;;;;;;;;5095672;28;19935;-68
2023/12/26 07:58:52;;;;;;;;;;;;;;;;;;5081830;28;20376;-69
2023/12/26 08:01:18;;;;;;;;;;;;;;;;;;5071407;28;19915;-69
2023/12/26 08:03:44;;;;;;;;;;;;;;;;;;5079724;28;19958;-68
2023/12/26 08:06:10;;;;;;;;;;;;;;;;;;5090852;28;19908;-70
2023/12/26 08:08:36;;;;;;;;;;;;;;;;;;5090273;28;19962;-69
2023/12/26 08:11:02;;;;;;;;;;;;;;;;;;5091448;28;19919;-69
2023/12/26 08:13:28;;;;;;;;;;;;;;;;;;5089652;28;19912;-68
2023/12/26 08:15:54;;;;;;;;;;;;;;;;;;5075070;28;20303;-69
2023/12/26 08:18:20;;;;;;;;;;;;;;;;;;5090702;28;20181;-68
2023/12/26 08:20:46;;;;;;;;;;;;;;;;;;5091492;28;19919;-69
2023/12/26 08:23:12;;;;;;;;;;;;;;;;;;5081266;28;19912;-69
2023/12/26 08:25:38;;;;;;;;;;;;;;;;;;5089162;28;19944;-69
2023/12/26 08:28:04;;;;;;;;;;;;;;;;;;5090483;28;19912;-67
2023/12/26 08:30:32;;;;;;;;;;;;;;;;;;5089823;28;19924;-69
2023/12/26 08:32:58;;;;;;;;;;;;;;;;;;5092212;28;19916;-68
2023/12/26 08:35:24;;;;;;;;;;;;;;;;;;5074085;28;19908;-68
2023/12/26 08:37:50;;;;;;;;;;;;;;;;;;5085438;28;20523;-69
2023/12/26 08:40:18;;;;;;;;;;;;;;;;;;5074360;28;19913;-72
2023/12/26 08:42:44;;;;;;;;;;;;;;;;;;5072015;28;20368;-72
2023/12/26 08:45:10;;;;;;;;;;;;;;;;;;5074132;28;19912;-72
2023/12/26 08:47:36;;;;;;;;;;;;;;;;;;5092131;28;19908;-72
2023/12/26 08:50:02;;;;;;;;;;;;;;;;;;5075663;28;19922;-71
2023/12/26 08:52:28;;;;;;;;;;;;;;;;;;5077291;28;19908;-71
2023/12/26 08:54:54;;;;;;;;;;;;;;;;;;5082484;28;19920;-71
2023/12/26 08:57:20;;;;;;;;;;;;;;;;;;5089765;28;20357;-71
2023/12/26 08:59:46;;;;;;;;;;;;;;;;;;5090832;28;20311;-72
2023/12/26 09:02:12;;;;;;;;;;;;;;;;;;5078909;28;19916;-72
2023/12/26 09:04:40;;;;;;;;;;;;;;;;;;5084055;28;20365;-73
2023/12/26 09:07:06;;;;;;;;;;;;;;;;;;5057527;28;19950;-72
2023/12/26 09:09:32;;;;;;;;;;;;;;;;;;5074647;28;20305;-72
2023/12/26 09:11:59;;;;;;;;;;;;;;;;;;5077902;28;19919;-72
2023/12/26 09:14:25;;;;;;;;;;;;;;;;;;5100219;28;20376;-72
2023/12/26 09:16:51;;;;;;;;;;;;;;;;;;5081938;28;19916;-72
2023/12/26 09:19:17;;;;;;;;;;;;;;;;;;5078268;28;19912;-72
2023/12/26 09:21:44;;;;;;;;;;;;;;;;;;5075361;28;20327;-72
2023/12/26 09:24:10;;;;;;;;;;;;;;;;;;5074785;28;19909;-72
2023/12/26 09:26:36;;;;;;;;;;;;;;;;;;5055415;28;19908;-72
2023/12/26 09:29:02;;;;;;;;;;;;;;;;;;5078439;28;20338;-72
2023/12/26 09:31:27;;;;;;;;;;;;;;;;;;5091354;28;19912;-73
2023/12/26 09:33:53;;;;;;;;;;;;;;;;;;5086373;28;19908;-72
2023/12/26 09:36:19;;;;;;;;;;;;;;;;;;5059961;28;20357;-72
2023/12/26 09:38:45;;;;;;;;;;;;;;;;;;5089979;28;20804;-72
2023/12/26 09:41:11;;;;;;;;;;;;;;;;;;5088272;28;19943;-72
2023/12/26 09:43:38;;;;;;;;;;;;;;;;;;5061879;28;19912;-72
2023/12/26 09:46:04;;;;;;;;;;;;;;;;;;5059510;28;20455;-73
2023/12/26 09:48:33;;;;;;;;;;;;;;;;;;5083965;28;19916;-72
2023/12/26 09:50:59;;;;;;;;;;;;;;;;;;5086600;28;19915;-72
2023/12/26 09:53:25;;;;;;;;;;;;;;;;;;5071210;28;19908;-72
2023/12/26 09:55:51;;;;;;;;;;;;;;;;;;5071251;28;19913;-72
2023/12/26 09:58:17;;;;;;;;;;;;;;;;;;5087164;28;19912;-72
2023/12/26 10:00:43;;;;;;;;;;;;;;;;;;5093010;28;19919;-72
2023/12/26 10:03:09;;;;;;;;;;;;;;;;;;5093085;28;20644;-72
2023/12/26 10:05:35;;;;;;;;;;;;;;;;;;5089465;28;19977;-72
2023/12/26 10:08:01;;;;;;;;;;;;;;;;;;5071931;28;20483;-71
2023/12/26 10:10:27;;;;;;;;;;;;;;;;;;5065407;28;19921;-72
2023/12/26 10:12:57;;;;;;;;;;;;;;;;;;5051738;28;19913;-76
2023/12/26 10:15:28;;;;;;;;;;;;;;;;;;5072576;28;19962;-74
2023/12/26 10:17:58;;;;;;;;;;;;;;;;;;5072595;28;19919;-74
2023/12/26 10:20:26;;;;;;;;;;;;;;;;;;5070023;28;20377;-75
2023/12/26 10:22:52;;;;;;;;;;;;;;;;;;5054736;28;19923;-74
2023/12/26 10:25:18;;;;;;;;;;;;;;;;;;5072648;28;19912;-72
2023/12/26 10:27:44;;;;;;;;;;;;;;;;;;5071829;28;20262;-75
2023/12/26 10:30:10;;;;;;;;;;;;;;;;;;5055275;28;19916;-74
2023/12/26 10:32:36;;;;;;;;;;;;;;;;;;5071049;28;19961;-75
2023/12/26 10:35:02;;;;;;;;;;;;;;;;;;5055379;28;20280;-74
2023/12/26 10:37:28;;;;;;;;;;;;;;;;;;5055512;28;19916;-75
2023/12/26 10:39:54;;;;;;;;;;;;;;;;;;5072303;28;19920;-74
2023/12/26 10:47:07;;;;;;;;;;;;;;;;;;5126481;27;19923;-75
2023/12/26 10:49:33;;;;;;;;;;;;;;;;;;5126958;28;19926;-75
2023/12/26 10:53:19;;;;;;;;;;;;;;;;;;5081401;27;20287;-69
2023/12/26 10:55:45;;;;;;;;;;;;;;;;;;5085469;28;19920;-69
2023/12/26 10:58:14;;;;;;;;;;;;;;;;;;5088539;28;20275;-69
2023/12/26 11:00:49;;;;;;;;;;;;;;;;;;5084834;28;19913;-68
2023/12/26 13:53:23;;;;;;;;;;;;;;;;;;5151656;27;20405;-70
2023/12/26 13:55:49;;;;;;;;;;;;;;;;;;5132277;27;19907;-70
2023/12/26 13:59:56;;;;;;;;;;;;;;;;;;5151766;27;19986;-68
2023/12/26 14:02:22;;;;;;;;;;;;;;;;;;5133625;27;19934;-69
2023/12/26 14:04:48;;;;;;;;;;;;;;;;;;5150106;27;20406;-70
2023/12/26 14:07:14;;;;;;;;;;;;;;;;;;5150437;27;20377;-68
2023/12/26 14:09:39;;;;;;;;;;;;;;;;;;5132782;27;19907;-68
2023/12/26 14:12:05;;;;;;;;;;;;;;;;;;5151434;27;19930;-69
2023/12/26 14:14:33;;;;;;;;;;;;;;;;;;5133231;27;19930;-69
2023/12/26 14:16:59;;;;;;;;;;;;;;;;;;5151970;27;20002;-68
2023/12/26 14:24:12;;;;;;;;;;;;;;;;;;5152801;27;20030;-69
2023/12/26 14:26:38;;;;;;;;;;;;;;;;;;5151990;27;19946;-69
2023/12/26 14:29:04;;;;;;;;;;;;;;;;;;5133805;27;19913;-69
2023/12/26 14:31:30;;;;;;;;;;;;;;;;;;5152016;27;19911;-68
2023/12/26 14:37:17;;;;;;;;;;;;;;;;;;5151938;27;19911;-68
2023/12/26 14:42:53;;;;;;;;;;;;;;;;;;5152778;27;20275;-68
2023/12/26 14:45:19;;;;;;;;;;;;;;;;;;5152476;27;20003;-71
2023/12/26 14:47:45;;;;;;;;;;;;;;;;;;5152088;27;19986;-70
2023/12/26 14:50:11;;;;;;;;;;;;;;;;;;5152611;27;19959;-70
2023/12/26 14:52:37;;;;;;;;;;;;;;;;;;5152254;27;19990;-70
2023/12/26 14:55:03;;;;;;;;;;;;;;;;;;5133400;27;19908;-70
2023/12/26 14:57:29;;;;;;;;;;;;;;;;;;5152259;27;19952;-70
2023/12/26 15:01:09;;;;;;;;;;;;;;;;;;5152839;27;19912;-71
2023/12/26 15:04:44;;;;;;;;;;;;;;;;;;5111991;27;19916;-70
2023/12/26 15:07:10;;;;;;;;;;;;;;;;;;5111394;28;19912;-70
2023/12/26 15:09:36;;;;;;;;;;;;;;;;;;5110822;28;19908;-70
2023/12/26 15:12:02;;;;;;;;;;;;;;;;;;5111290;28;20007;-70
2023/12/26 15:14:29;;;;;;;;;;;;;;;;;;5111046;28;19993;-71
2023/12/26 15:16:55;;;;;;;;;;;;;;;;;;5110828;28;19950;-70
2023/12/26 15:19:23;;;;;;;;;;;;;;;;;;5111167;28;19908;-70
2023/12/26 15:21:49;;;;;;;;;;;;;;;;;;5110933;28;19908;-70
2023/12/26 15:24:15;;;;;;;;;;;;;;;;;;5110944;28;19981;-70
2023/12/26 15:26:41;;;;;;;;;;;;;;;;;;5111149;28;19908;-70
2023/12/26 15:29:07;;;;;;;;;;;;;;;;;;5110545;28;19908;-70
2023/12/26 15:31:33;;;;;;;;;;;;;;;;;;5110901;28;20037;-70
2023/12/26 15:33:59;;;;;;;;;;;;;;;;;;5111308;28;20253;-70
2023/12/26 15:36:25;;;;;;;;;;;;;;;;;;5110434;28;19915;-70
2023/12/26 15:38:51;;;;;;;;;;;;;;;;;;5110789;28;19918;-70
2023/12/26 15:41:16;;;;;;;;;;;;;;;;;;5110604;28;20003;-70
2023/12/26 15:43:42;;;;;;;;;;;;;;;;;;5110439;28;20341;-70
2023/12/26 15:46:08;;;;;;;;;;;;;;;;;;5110590;28;19977;-70
2023/12/26 15:48:34;;;;;;;;;;;;;;;;;;5110782;28;19908;-70
2023/12/26 15:51:00;;;;;;;;;;;;;;;;;;5108890;28;19908;-71
2023/12/26 15:53:26;;;;;;;;;;;;;;;;;;5109161;28;19914;-71
2023/12/26 15:55:52;;;;;;;;;;;;;;;;;;5109279;28;19915;-71
2023/12/26 15:58:18;;;;;;;;;;;;;;;;;;5110142;28;19908;-71
2023/12/26 16:00:44;;;;;;;;;;;;;;;;;;5109212;28;20265;-71
2023/12/26 16:03:11;;;;;;;;;;;;;;;;;;5110069;28;19927;-71
2023/12/26 16:05:37;;;;;;;;;;;;;;;;;;5108656;28;19908;-71
2023/12/26 16:08:03;;;;;;;;;;;;;;;;;;5110338;28;20369;-71
2023/12/26 16:10:29;;;;;;;;;;;;;;;;;;5108901;28;19908;-70
2023/12/26 16:12:55;;;;;;;;;;;;;;;;;;5109667;28;19953;-70
2023/12/26 16:15:21;;;;;;;;;;;;;;;;;;5100544;28;19915;-72
2023/12/26 16:17:47;;;;;;;;;;;;;;;;;;5096638;28;19962;-71
2023/12/26 16:20:13;;;;;;;;;;;;;;;;;;5095991;28;20337;-71
2023/12/26 16:22:39;;;;;;;;;;;;;;;;;;5096281;28;19912;-70
2023/12/26 16:25:04;;;;;;;;;;;;;;;;;;5096690;28;19913;-70
2023/12/26 16:27:32;;;;;;;;;;;;;;;;;;5096264;28;20369;-70
2023/12/26 16:29:58;;;;;;;;;;;;;;;;;;5094993;28;19947;-70
2023/12/26 16:32:24;;;;;;;;;;;;;;;;;;5094542;28;19912;-70
2023/12/26 16:34:50;;;;;;;;;;;;;;;;;;5094895;28;19931;-70
2023/12/26 16:37:16;;;;;;;;;;;;;;;;;;5094732;28;19951;-70
2023/12/26 16:39:42;;;;;;;;;;;;;;;;;;5095683;28;19955;-71
2023/12/26 16:42:08;;;;;;;;;;;;;;;;;;5096155;28;19915;-70
2023/12/26 16:44:34;;;;;;;;;;;;;;;;;;5094614;28;20400;-70
2023/12/26 16:47:00;;;;;;;;;;;;;;;;;;5094134;28;19947;-71
2023/12/26 16:49:26;;;;;;;;;;;;;;;;;;5095894;28;19908;-70
2023/12/26 16:51:51;;;;;;;;;;;;;;;;;;5095738;28;19908;-70
2023/12/26 16:54:17;;;;;;;;;;;;;;;;;;5094082;28;20376;-70
2023/12/26 16:56:43;;;;;;;;;;;;;;;;;;5095663;28;20280;-70
2023/12/26 16:59:09;;;;;;;;;;;;;;;;;;5095626;28;19915;-70
2023/12/26 17:01:35;;;;;;;;;;;;;;;;;;5094623;28;19912;-71
2023/12/26 17:04:03;;;;;;;;;;;;;;;;;;5094037;28;20365;-71
2023/12/26 17:06:29;;;;;;;;;;;;;;;;;;5094115;28;19957;-71
2023/12/26 17:08:55;;;;;;;;;;;;;;;;;;5095094;28;20314;-71
2023/12/26 17:11:23;;;;;;;;;;;;;;;;;;5094135;28;20010;-71
2023/12/26 17:13:49;;;;;;;;;;;;;;;;;;5095479;28;20376;-70
2023/12/26 17:16:15;;;;;;;;;;;;;;;;;;5095075;28;19908;-70
2023/12/26 17:18:41;;;;;;;;;;;;;;;;;;5095340;28;19908;-70
2023/12/26 17:21:07;;;;;;;;;;;;;;;;;;5095423;28;19921;-70
2023/12/26 17:23:33;;;;;;;;;;;;;;;;;;5094771;28;19990;-70
2023/12/26 17:25:59;;;;;;;;;;;;;;;;;;5093018;28;19908;-70
2023/12/26 17:28:25;;;;;;;;;;;;;;;;;;5093254;28;19915;-70
2023/12/26 17:30:51;;;;;;;;;;;;;;;;;;5095051;28;19908;-70
2023/12/26 17:33:17;;;;;;;;;;;;;;;;;;5094992;28;20022;-70
2023/12/26 17:35:43;;;;;;;;;;;;;;;;;;5094964;28;19947;-70
2023/12/26 17:38:09;;;;;;;;;;;;;;;;;;5094907;28;19908;-70
2023/12/26 17:40:35;;;;;;;;;;;;;;;;;;5093647;28;19952;-70
2023/12/26 17:43:01;;;;;;;;;;;;;;;;;;5093018;28;19952;-70
2023/12/26 17:45:28;;;;;;;;;;;;;;;;;;5094746;28;19991;-70
2023/12/26 17:47:54;;;;;;;;;;;;;;;;;;5093755;28;20288;-70
2023/12/26 17:50:20;;;;;;;;;;;;;;;;;;5094301;28;19908;-70
2023/12/26 17:52:46;;;;;;;;;;;;;;;;;;5095175;28;20381;-70
2023/12/26 17:55:14;;;;;;;;;;;;;;;;;;5094575;28;19908;-70
2023/12/26 17:57:40;;;;;;;;;;;;;;;;;;5092840;28;19923;-70
2023/12/26 18:00:06;;;;;;;;;;;;;;;;;;5094444;28;19908;-70
2023/12/26 18:02:32;;;;;;;;;;;;;;;;;;5092786;28;19938;-70
2023/12/26 18:04:59;;;;;;;;;;;;;;;;;;5092230;28;19908;-69
2023/12/26 18:07:25;;;;;;;;;;;;;;;;;;5094416;28;19916;-69
2023/12/26 18:09:51;;;;;;;;;;;;;;;;;;5094257;28;20003;-69
2023/12/26 18:12:17;;;;;;;;;;;;;;;;;;5093745;28;20008;-69
2023/12/26 18:14:43;;;;;;;;;;;;;;;;;;5094059;28;19908;-69
2023/12/26 18:17:09;;;;;;;;;;;;;;;;;;5092811;28;19948;-69
2023/12/26 18:19:35;;;;;;;;;;;;;;;;;;5093838;28;19908;-70
2023/12/26 18:22:01;;;;;;;;;;;;;;;;;;5094189;28;20373;-70
2023/12/26 18:24:27;;;;;;;;;;;;;;;;;;5093969;28;20015;-70
2023/12/26 18:26:53;;;;;;;;;;;;;;;;;;5093789;28;20265;-70
2023/12/26 18:29:22;;;;;;;;;;;;;;;;;;5093942;28;19915;-70
2023/12/26 18:31:50;;;;;;;;;;;;;;;;;;5093504;28;20035;-70
2023/12/26 18:34:16;;;;;;;;;;;;;;;;;;5093867;28;19948;-70
2023/12/26 18:36:42;;;;;;;;;;;;;;;;;;5093762;28;20020;-70
2023/12/26 18:39:09;;;;;;;;;;;;;;;;;;5093164;28;19942;-70
2023/12/26 18:41:35;;;;;;;;;;;;;;;;;;5093804;28;20017;-69
2023/12/26 18:44:01;;;;;;;;;;;;;;;;;;5093676;28;19916;-70
2023/12/26 18:46:27;;;;;;;;;;;;;;;;;;5093375;28;19908;-70
2023/12/26 18:48:52;;;;;;;;;;;;;;;;;;5093753;28;19908;-71
2023/12/26 18:51:18;;;;;;;;;;;;;;;;;;5093640;28;20054;-70
2023/12/26 18:53:44;;;;;;;;;;;;;;;;;;5092006;28;19908;-70
2023/12/26 18:56:10;;;;;;;;;;;;;;;;;;5093593;28;19908;-71
2023/12/26 18:58:36;;;;;;;;;;;;;;;;;;5092402;28;19908;-70
2023/12/26 19:01:02;;;;;;;;;;;;;;;;;;5093420;28;20002;-71
2023/12/26 19:03:28;;;;;;;;;;;;;;;;;;5093490;28;19924;-70
2023/12/26 19:05:54;;;;;;;;;;;;;;;;;;5093539;28;20423;-68
2023/12/26 19:08:20;;;;;;;;;;;;;;;;;;5093076;28;19912;-68
2023/12/26 19:10:48;;;;;;;;;;;;;;;;;;5092147;28;19908;-70
2023/12/26 19:13:18;;;;;;;;;;;;;;;;;;5093456;28;19919;-67
2023/12/26 19:15:45;;;;;;;;;;;;;;;;;;5093245;28;19915;-68
2023/12/26 19:18:10;;;;;;;;;;;;;;;;;;5093503;28;19908;-69
2023/12/26 19:20:36;;;;;;;;;;;;;;;;;;5093549;28;20079;-69
2023/12/26 19:23:02;;;;;;;;;;;;;;;;;;5092744;28;19968;-70
2023/12/26 19:25:28;;;;;;;;;;;;;;;;;;5093254;28;19912;-69
2023/12/26 19:27:55;;;;;;;;;;;;;;;;;;5091841;28;19908;-69
2023/12/26 19:30:21;;;;;;;;;;;;;;;;;;5092919;28;20386;-70
2023/12/26 19:32:47;;;;;;;;;;;;;;;;;;5093113;28;19919;-69
2023/12/26 19:35:13;;;;;;;;;;;;;;;;;;5092724;28;20322;-69
2023/12/26 19:37:39;;;;;;;;;;;;;;;;;;5091997;28;19953;-69
2023/12/26 19:40:05;;;;;;;;;;;;;;;;;;5093108;28;19915;-69
2023/12/26 19:42:31;;;;;;;;;;;;;;;;;;5091254;28;19912;-69
2023/12/26 19:44:58;;;;;;;;;;;;;;;;;;5091797;28;19982;-69
2023/12/26 19:47:24;;;;;;;;;;;;;;;;;;5092976;28;20040;-69
2023/12/26 19:49:50;;;;;;;;;;;;;;;;;;5093658;28;19958;-69